createdAt,value
2023-03-23T15:59:19.249Z,5.45
2023-03-23T16:01:49.836Z,4.63
2023-03-23T16:04:20.196Z,5.93
2023-03-23T16:06:50.069Z,4.32
2023-03-23T16:09:24.269Z,5.55
2023-03-23T16:11:53.558Z,4.45
2023-03-23T16:14:23.709Z,4.22
2023-03-23T16:16:54.476Z,4.80
2023-03-23T16:19:25.642Z,4.40
2023-03-23T16:21:54.534Z,4.20
2023-03-23T16:24:22.787Z,5.57
2023-03-23T16:26:49.807Z,4.07
2023-03-23T16:29:34.384Z,4.07
2023-03-23T16:32:09.223Z,5.50
2023-03-23T16:34:46.353Z,5.05
2023-03-23T16:37:13.933Z,4.72
2023-03-23T16:39:42.538Z,5.70
2023-03-23T16:42:12.213Z,5.70
2023-03-23T16:44:49.047Z,6.88
2023-03-23T16:47:23.581Z,6.07
2023-03-23T16:49:55.762Z,5.88
2023-03-23T16:52:30.513Z,5.47
2023-03-23T16:55:06.482Z,4.32
2023-03-23T16:57:37.569Z,4.88
2023-03-23T17:00:09.853Z,4.57
2023-03-23T17:02:42.448Z,6.22
2023-03-23T17:05:15.215Z,6.63
2023-03-23T17:07:46.066Z,7.20
2023-03-23T17:10:16.551Z,6.68
2023-03-23T17:12:48.326Z,5.20
2023-03-23T17:15:24.443Z,5.50
2023-03-23T17:17:55.430Z,5.55
2023-03-23T17:20:25.332Z,5.22
2023-03-23T17:22:54.927Z,5.32
2023-03-23T17:25:22.562Z,6.30
2023-03-23T17:28:05.472Z,5.63
2023-03-23T17:30:36.012Z,6.40
2023-03-23T17:33:13.662Z,7.50
2023-03-23T17:35:43.997Z,6.38
2023-03-23T17:38:11.591Z,6.95
2023-03-23T17:40:41.362Z,5.93
2023-03-23T17:43:10.247Z,6.00
2023-03-23T17:45:39.926Z,6.50
2023-03-23T17:48:08.404Z,6.28
2023-03-23T17:50:38.068Z,6.25
2023-03-23T17:53:07.680Z,7.25
2023-03-23T17:55:45.505Z,8.02
2023-03-23T17:58:16.606Z,5.72
2023-03-23T18:00:45.494Z,10.15
2023-03-23T18:03:17.299Z,8.07
2023-03-23T18:05:45.164Z,5.25
2023-03-23T18:08:14.600Z,6.68
2023-03-23T18:10:46.374Z,5.88
2023-03-23T18:13:15.056Z,6.97
2023-03-23T18:15:48.389Z,7.07
2023-03-23T18:18:16.952Z,6.82
2023-03-23T18:20:46.232Z,7.70
2023-03-23T18:23:21.920Z,8.00
2023-03-23T18:25:54.101Z,10.45
2023-03-23T18:28:23.624Z,9.88
2023-03-23T18:30:56.229Z,9.95
2023-03-23T18:36:03.997Z,9.27
2023-03-23T18:38:41.663Z,12.93
2023-03-23T18:41:13.136Z,10.50
2023-03-23T18:43:42.094Z,8.95
2023-03-23T18:46:13.196Z,13.38
2023-03-23T18:48:43.984Z,8.05
2023-03-23T18:51:13.381Z,9.18
2023-03-23T18:53:40.865Z,10.00
2023-03-23T18:56:20.662Z,10.90
2023-03-23T18:58:59.221Z,8.10
2023-03-23T19:01:35.991Z,8.30
2023-03-23T19:04:06.766Z,9.33
2023-03-23T19:06:38.561Z,10.53
2023-03-23T19:09:09.206Z,8.77
2023-03-23T19:11:37.688Z,10.73
2023-03-23T19:14:06.283Z,10.57
2023-03-23T19:16:44.105Z,11.87
2023-03-23T19:21:46.944Z,9.33
2023-03-23T19:24:16.766Z,12.23
2023-03-23T19:26:49.725Z,9.20
2023-03-23T19:29:25.943Z,11.13
2023-03-23T19:31:57.806Z,8.43
2023-03-23T19:34:28.958Z,10.63
2023-03-23T19:37:05.305Z,12.60
2023-03-23T19:39:37.205Z,10.87
2023-03-23T19:42:06.684Z,10.20
2023-03-23T19:44:43.253Z,10.93
2023-03-23T19:47:13.515Z,11.80
2023-03-23T19:49:51.560Z,11.47
2023-03-23T19:52:23.372Z,13.03
2023-03-23T19:54:55.039Z,10.43
2023-03-23T19:57:25.575Z,12.67
2023-03-23T19:59:55.916Z,13.17
2023-03-23T20:02:26.125Z,11.60
2023-03-23T20:04:57.201Z,9.60
2023-03-23T20:07:28.694Z,12.23
2023-03-23T20:10:06.243Z,10.47
2023-03-23T20:12:37.373Z,10.40
2023-03-23T20:15:09.205Z,10.20
2023-03-23T20:17:38.025Z,12.27
2023-03-23T20:20:10.463Z,9.63
2023-03-23T20:22:38.983Z,11.03
2023-03-23T20:25:15.683Z,11.77
2023-03-23T20:27:44.987Z,13.30
2023-03-23T20:30:14.568Z,11.17
2023-03-23T20:32:50.252Z,9.57
2023-03-23T20:35:26.419Z,10.27
2023-03-23T20:38:02.298Z,12.00
2023-03-23T20:40:30.738Z,13.03
2023-03-23T20:43:04.437Z,10.97
2023-03-23T20:45:34.139Z,13.13
2023-03-23T20:48:14.704Z,10.00
2023-03-23T20:50:45.705Z,11.83
2023-03-23T20:53:14.569Z,9.50
2023-03-23T20:55:41.626Z,10.73
2023-03-23T20:58:12.085Z,10.80
2023-03-23T21:00:49.680Z,12.03
2023-03-23T21:03:26.952Z,10.13
2023-03-23T21:05:57.589Z,12.53
2023-03-23T21:08:26.885Z,10.87
2023-03-23T21:10:58.086Z,9.57
2023-03-23T21:13:26.526Z,10.60
2023-03-23T21:15:55.354Z,11.87
2023-03-23T21:18:25.639Z,10.77
2023-03-23T21:20:54.688Z,10.10
2023-03-23T21:23:30.218Z,9.63
2023-03-23T21:26:03.893Z,13.33
2023-03-23T21:28:31.164Z,9.73
2023-03-23T21:31:05.109Z,11.00
2023-03-23T21:33:32.562Z,8.40
2023-03-23T21:36:03.315Z,10.37
2023-03-23T21:38:32.834Z,7.83
2023-03-23T21:41:11.630Z,10.50
2023-03-23T21:43:40.967Z,8.63
2023-03-23T21:46:18.056Z,9.77
2023-03-23T21:48:54.038Z,9.10
2023-03-23T21:51:26.442Z,10.83
2023-03-23T21:53:59.634Z,9.83
2023-03-23T21:56:32.271Z,9.80
2023-03-23T21:59:11.297Z,10.10
2023-03-23T22:01:41.192Z,9.43
2023-03-23T22:04:10.162Z,9.63
2023-03-23T22:06:38.712Z,10.47
2023-03-23T22:09:07.694Z,8.87
2023-03-23T22:11:36.753Z,9.33
2023-03-23T22:14:22.256Z,9.27
2023-03-23T22:16:52.729Z,10.07
2023-03-23T22:19:23.840Z,7.77
2023-03-23T22:22:01.356Z,9.97
2023-03-23T22:24:28.745Z,8.13
2023-03-23T22:26:57.434Z,9.07
2023-03-23T22:29:26.283Z,8.50
2023-03-23T22:31:57.061Z,12.70
2023-03-23T22:34:28.799Z,12.70
2023-03-23T22:36:56.967Z,9.00
2023-03-23T22:39:34.310Z,11.23
2023-03-23T22:42:06.777Z,11.10
2023-03-23T22:44:36.804Z,8.57
2023-03-23T22:47:14.138Z,9.93
2023-03-23T22:49:45.567Z,13.00
2023-03-23T22:52:15.226Z,11.50
2023-03-23T22:54:45.298Z,12.63
2023-03-23T22:57:12.617Z,12.90
2023-03-23T22:59:48.443Z,13.17
2023-03-23T23:02:18.006Z,10.60
2023-03-23T23:04:46.366Z,13.17
2023-03-23T23:07:20.568Z,11.87
2023-03-23T23:09:49.295Z,10.60
2023-03-23T23:12:21.285Z,9.90
2023-03-23T23:14:50.326Z,13.43
2023-03-23T23:17:22.610Z,12.47
2023-03-23T23:19:59.490Z,9.00
2023-03-23T23:22:35.869Z,10.40
2023-03-23T23:25:04.601Z,10.20
2023-03-23T23:27:41.626Z,10.13
2023-03-23T23:30:11.106Z,11.10
2023-03-23T23:32:47.875Z,10.30
2023-03-23T23:35:18.571Z,11.27
2023-03-23T23:37:48.101Z,10.53
2023-03-23T23:40:17.968Z,10.63
2023-03-23T23:42:53.646Z,11.13
2023-03-23T23:45:22.893Z,10.83
2023-03-23T23:47:50.498Z,10.53
2023-03-23T23:50:19.505Z,12.33
2023-03-23T23:52:51.240Z,11.33
2023-03-23T23:55:22.104Z,11.27
2023-03-23T23:57:59.858Z,12.50
